sensor_id;sensor_type;location;lat;lon;timestamp;temperature;humidity
19060;DHT22;9663;48.996;8.334;2023-04-25T00:01:24;11.60;57.60
19060;DHT22;9663;48.996;8.334;2023-04-25T00:03:50;11.50;57.50
19060;DHT22;9663;48.996;8.334;2023-04-25T00:06:16;11.30;57.40
19060;DHT22;9663;48.996;8.334;2023-04-25T00:08:43;11.50;57.60
19060;DHT22;9663;48.996;8.334;2023-04-25T00:11:09;11.40;57.60
19060;DHT22;9663;48.996;8.334;2023-04-25T00:13:35;11.40;57.70
19060;DHT22;9663;48.996;8.334;2023-04-25T00:16:01;11.40;57.80
19060;DHT22;9663;48.996;8.334;2023-04-25T00:18:28;11.30;57.70
19060;DHT22;9663;48.996;8.334;2023-04-25T00:20:58;11.40;57.70
19060;DHT22;9663;48.996;8.334;2023-04-25T00:23:24;11.30;57.80
19060;DHT22;9663;48.996;8.334;2023-04-25T00:25:50;11.30;57.80
19060;DHT22;9663;48.996;8.334;2023-04-25T00:28:16;11.30;58.50
19060;DHT22;9663;48.996;8.334;2023-04-25T00:30:42;11.30;57.80
19060;DHT22;9663;48.996;8.334;2023-04-25T00:33:09;11.30;57.90
19060;DHT22;9663;48.996;8.334;2023-04-25T00:35:35;11.30;57.90
19060;DHT22;9663;48.996;8.334;2023-04-25T00:38:01;11.40;58.00
19060;DHT22;9663;48.996;8.334;2023-04-25T00:40:27;10.80;57.70
19060;DHT22;9663;48.996;8.334;2023-04-25T00:42:53;11.40;58.00
19060;DHT22;9663;48.996;8.334;2023-04-25T00:45:20;11.40;57.90
19060;DHT22;9663;48.996;8.334;2023-04-25T00:47:46;11.30;57.90
19060;DHT22;9663;48.996;8.334;2023-04-25T00:50:13;11.30;57.90
19060;DHT22;9663;48.996;8.334;2023-04-25T00:52:41;11.30;58.00
19060;DHT22;9663;48.996;8.334;2023-04-25T00:55:10;11.30;58.00
19060;DHT22;9663;48.996;8.334;2023-04-25T00:57:36;11.30;58.00
19060;DHT22;9663;48.996;8.334;2023-04-25T01:00:06;11.30;58.10
19060;DHT22;9663;48.996;8.334;2023-04-25T01:02:49;11.30;58.20
19060;DHT22;9663;48.996;8.334;2023-04-25T01:05:15;11.30;58.20
19060;DHT22;9663;48.996;8.334;2023-04-25T01:07:41;11.30;58.20
19060;DHT22;9663;48.996;8.334;2023-04-25T01:10:08;10.00;57.80
19060;DHT22;9663;48.996;8.334;2023-04-25T01:12:34;12.10;58.50
19060;DHT22;9663;48.996;8.334;2023-04-25T01:15:00;11.40;58.20
19060;DHT22;9663;48.996;8.334;2023-04-25T01:17:26;11.40;58.10
19060;DHT22;9663;48.996;8.334;2023-04-25T01:19:53;11.40;58.10
19060;DHT22;9663;48.996;8.334;2023-04-25T01:22:19;11.00;58.60
19060;DHT22;9663;48.996;8.334;2023-04-25T01:24:45;11.40;58.10
19060;DHT22;9663;48.996;8.334;2023-04-25T01:27:11;11.30;58.10
19060;DHT22;9663;48.996;8.334;2023-04-25T01:29:37;11.40;58.20
19060;DHT22;9663;48.996;8.334;2023-04-25T01:32:03;11.50;58.30
19060;DHT22;9663;48.996;8.334;2023-04-25T01:34:30;11.40;58.30
19060;DHT22;9663;48.996;8.334;2023-04-25T01:36:56;11.40;58.40
19060;DHT22;9663;48.996;8.334;2023-04-25T01:39:21;11.30;58.30
19060;DHT22;9663;48.996;8.334;2023-04-25T01:41:48;11.30;58.30
19060;DHT22;9663;48.996;8.334;2023-04-25T01:44:14;11.30;58.40
19060;DHT22;9663;48.996;8.334;2023-04-25T01:46:41;11.30;59.00
19060;DHT22;9663;48.996;8.334;2023-04-25T01:49:07;11.20;58.30
19060;DHT22;9663;48.996;8.334;2023-04-25T01:51:33;11.00;58.30
19060;DHT22;9663;48.996;8.334;2023-04-25T01:53:59;11.30;58.50
19060;DHT22;9663;48.996;8.334;2023-04-25T01:56:29;11.80;58.70
19060;DHT22;9663;48.996;8.334;2023-04-25T01:58:55;11.40;58.60
19060;DHT22;9663;48.996;8.334;2023-04-25T02:01:21;11.30;58.60
19060;DHT22;9663;48.996;8.334;2023-04-25T02:03:47;11.40;58.60
19060;DHT22;9663;48.996;8.334;2023-04-25T02:06:12;11.30;58.70
19060;DHT22;9663;48.996;8.334;2023-04-25T02:08:38;11.40;58.70
19060;DHT22;9663;48.996;8.334;2023-04-25T02:11:03;11.30;58.70
19060;DHT22;9663;48.996;8.334;2023-04-25T02:13:29;11.30;58.70
19060;DHT22;9663;48.996;8.334;2023-04-25T02:15:55;11.40;58.80
19060;DHT22;9663;48.996;8.334;2023-04-25T02:18:21;11.40;58.80
19060;DHT22;9663;48.996;8.334;2023-04-25T02:20:47;11.40;58.80
19060;DHT22;9663;48.996;8.334;2023-04-25T02:23:12;11.40;58.60
19060;DHT22;9663;48.996;8.334;2023-04-25T02:25:38;11.50;58.70
19060;DHT22;9663;48.996;8.334;2023-04-25T02:28:04;11.50;58.70
19060;DHT22;9663;48.996;8.334;2023-04-25T02:30:30;11.50;58.70
19060;DHT22;9663;48.996;8.334;2023-04-25T02:32:55;11.60;59.40
19060;DHT22;9663;48.996;8.334;2023-04-25T02:35:21;11.50;58.70
19060;DHT22;9663;48.996;8.334;2023-04-25T02:37:47;11.60;58.70
19060;DHT22;9663;48.996;8.334;2023-04-25T02:40:13;11.40;58.60
19060;DHT22;9663;48.996;8.334;2023-04-25T02:42:38;11.60;58.80
19060;DHT22;9663;48.996;8.334;2023-04-25T02:45:05;11.20;59.20
19060;DHT22;9663;48.996;8.334;2023-04-25T02:47:30;11.70;58.80
19060;DHT22;9663;48.996;8.334;2023-04-25T02:49:56;11.70;58.80
19060;DHT22;9663;48.996;8.334;2023-04-25T02:52:22;11.70;58.80
19060;DHT22;9663;48.996;8.334;2023-04-25T02:54:48;11.70;58.80
19060;DHT22;9663;48.996;8.334;2023-04-25T02:57:13;11.70;58.80
19060;DHT22;9663;48.996;8.334;2023-04-25T02:59:40;11.90;58.80
19060;DHT22;9663;48.996;8.334;2023-04-25T03:02:05;11.70;58.70
19060;DHT22;9663;48.996;8.334;2023-04-25T03:04:31;11.70;58.70
19060;DHT22;9663;48.996;8.334;2023-04-25T03:06:58;11.70;58.70
19060;DHT22;9663;48.996;8.334;2023-04-25T03:09:24;11.70;58.60
19060;DHT22;9663;48.996;8.334;2023-04-25T03:11:50;11.60;58.60
19060;DHT22;9663;48.996;8.334;2023-04-25T03:14:15;11.70;58.60
19060;DHT22;9663;48.996;8.334;2023-04-25T03:16:41;11.70;58.70
19060;DHT22;9663;48.996;8.334;2023-04-25T03:19:07;11.70;58.80
19060;DHT22;9663;48.996;8.334;2023-04-25T03:21:33;11.60;58.80
19060;DHT22;9663;48.996;8.334;2023-04-25T03:24:01;11.60;58.90
19060;DHT22;9663;48.996;8.334;2023-04-25T03:26:28;11.60;58.90
19060;DHT22;9663;48.996;8.334;2023-04-25T03:28:54;11.60;59.60
19060;DHT22;9663;48.996;8.334;2023-04-25T03:31:20;11.50;58.90
19060;DHT22;9663;48.996;8.334;2023-04-25T03:33:47;11.50;59.00
19060;DHT22;9663;48.996;8.334;2023-04-25T03:36:12;11.60;59.00
19060;DHT22;9663;48.996;8.334;2023-04-25T03:38:38;11.50;59.00
19060;DHT22;9663;48.996;8.334;2023-04-25T03:41:04;11.50;59.10
19060;DHT22;9663;48.996;8.334;2023-04-25T03:43:29;12.30;59.50
19060;DHT22;9663;48.996;8.334;2023-04-25T03:45:55;11.40;59.00
19060;DHT22;9663;48.996;8.334;2023-04-25T03:48:21;11.40;59.10
19060;DHT22;9663;48.996;8.334;2023-04-25T03:50:47;11.40;59.10
19060;DHT22;9663;48.996;8.334;2023-04-25T03:53:13;11.40;59.10
19060;DHT22;9663;48.996;8.334;2023-04-25T03:55:39;11.40;59.20
19060;DHT22;9663;48.996;8.334;2023-04-25T03:58:05;11.00;59.00
19060;DHT22;9663;48.996;8.334;2023-04-25T04:00:31;10.90;59.00
19060;DHT22;9663;48.996;8.334;2023-04-25T04:02:57;11.50;59.30
19060;DHT22;9663;48.996;8.334;2023-04-25T04:05:22;11.30;59.30
19060;DHT22;9663;48.996;8.334;2023-04-25T04:07:48;11.40;59.30
19060;DHT22;9663;48.996;8.334;2023-04-25T04:10:14;11.50;59.40
19060;DHT22;9663;48.996;8.334;2023-04-25T04:12:39;11.40;59.30
19060;DHT22;9663;48.996;8.334;2023-04-25T04:15:06;11.40;59.30
19060;DHT22;9663;48.996;8.334;2023-04-25T04:17:32;11.40;59.20
19060;DHT22;9663;48.996;8.334;2023-04-25T04:19:59;11.50;59.40
19060;DHT22;9663;48.996;8.334;2023-04-25T04:22:25;11.40;59.30
19060;DHT22;9663;48.996;8.334;2023-04-25T04:24:51;11.50;59.30
19060;DHT22;9663;48.996;8.334;2023-04-25T04:27:20;11.50;59.40
19060;DHT22;9663;48.996;8.334;2023-04-25T04:29:46;11.50;59.50
19060;DHT22;9663;48.996;8.334;2023-04-25T04:32:13;11.50;59.40
19060;DHT22;9663;48.996;8.334;2023-04-25T04:34:39;11.10;59.20
19060;DHT22;9663;48.996;8.334;2023-04-25T04:37:06;11.50;59.70
19060;DHT22;9663;48.996;8.334;2023-04-25T04:39:33;11.60;59.40
19060;DHT22;9663;48.996;8.334;2023-04-25T04:41:59;11.60;59.40
19060;DHT22;9663;48.996;8.334;2023-04-25T04:44:27;11.60;59.40
19060;DHT22;9663;48.996;8.334;2023-04-25T04:46:53;11.70;59.40
19060;DHT22;9663;48.996;8.334;2023-04-25T04:49:20;11.70;59.40
19060;DHT22;9663;48.996;8.334;2023-04-25T04:51:46;11.70;59.50
19060;DHT22;9663;48.996;8.334;2023-04-25T04:54:12;11.70;60.10
19060;DHT22;9663;48.996;8.334;2023-04-25T04:56:38;11.70;59.60
19060;DHT22;9663;48.996;8.334;2023-04-25T04:59:04;12.90;60.10
19060;DHT22;9663;48.996;8.334;2023-04-25T05:01:30;11.80;59.70
19060;DHT22;9663;48.996;8.334;2023-04-25T05:03:56;11.80;59.60
19060;DHT22;9663;48.996;8.334;2023-04-25T05:06:26;11.80;59.60
19060;DHT22;9663;48.996;8.334;2023-04-25T05:08:54;11.80;59.70
19060;DHT22;9663;48.996;8.334;2023-04-25T05:11:21;11.30;59.20
19060;DHT22;9663;48.996;8.334;2023-04-25T05:13:47;11.90;59.50
19060;DHT22;9663;48.996;8.334;2023-04-25T05:16:13;11.90;59.50
19060;DHT22;9663;48.996;8.334;2023-04-25T05:18:39;11.90;59.50
19060;DHT22;9663;48.996;8.334;2023-04-25T05:21:05;11.90;59.50
19060;DHT22;9663;48.996;8.334;2023-04-25T05:23:32;11.90;59.60
19060;DHT22;9663;48.996;8.334;2023-04-25T05:25:58;12.00;59.70
19060;DHT22;9663;48.996;8.334;2023-04-25T05:28:24;11.60;59.50
19060;DHT22;9663;48.996;8.334;2023-04-25T05:30:50;12.00;59.60
19060;DHT22;9663;48.996;8.334;2023-04-25T05:33:16;11.80;59.60
19060;DHT22;9663;48.996;8.334;2023-04-25T05:35:42;12.10;59.70
19060;DHT22;9663;48.996;8.334;2023-04-25T05:38:08;12.10;59.70
19060;DHT22;9663;48.996;8.334;2023-04-25T05:40:34;13.00;60.20
19060;DHT22;9663;48.996;8.334;2023-04-25T05:43:00;12.20;59.70
19060;DHT22;9663;48.996;8.334;2023-04-25T05:45:26;12.20;59.60
19060;DHT22;9663;48.996;8.334;2023-04-25T05:47:52;12.20;59.50
19060;DHT22;9663;48.996;8.334;2023-04-25T05:50:17;12.30;59.50
19060;DHT22;9663;48.996;8.334;2023-04-25T05:52:43;11.20;58.90
19060;DHT22;9663;48.996;8.334;2023-04-25T05:55:09;14.30;60.50
19060;DHT22;9663;48.996;8.334;2023-04-25T05:57:35;12.30;59.40
19060;DHT22;9663;48.996;8.334;2023-04-25T06:00:01;14.30;60.50
19060;DHT22;9663;48.996;8.334;2023-04-25T06:02:26;12.30;59.40
19060;DHT22;9663;48.996;8.334;2023-04-25T06:04:52;12.30;59.30
19060;DHT22;9663;48.996;8.334;2023-04-25T06:07:19;12.30;59.40
19060;DHT22;9663;48.996;8.334;2023-04-25T06:09:45;12.30;59.40
19060;DHT22;9663;48.996;8.334;2023-04-25T06:12:11;12.30;59.40
19060;DHT22;9663;48.996;8.334;2023-04-25T06:14:36;12.30;59.50
19060;DHT22;9663;48.996;8.334;2023-04-25T06:17:03;12.30;59.50
19060;DHT22;9663;48.996;8.334;2023-04-25T06:19:33;12.30;59.50
19060;DHT22;9663;48.996;8.334;2023-04-25T06:22:01;12.30;59.40
19060;DHT22;9663;48.996;8.334;2023-04-25T06:24:27;12.30;59.40
19060;DHT22;9663;48.996;8.334;2023-04-25T06:26:54;12.30;59.40
19060;DHT22;9663;48.996;8.334;2023-04-25T06:29:20;12.30;59.50
19060;DHT22;9663;48.996;8.334;2023-04-25T06:31:46;12.30;59.60
19060;DHT22;9663;48.996;8.334;2023-04-25T06:34:12;12.20;59.60
19060;DHT22;9663;48.996;8.334;2023-04-25T06:36:37;12.30;59.70
19060;DHT22;9663;48.996;8.334;2023-04-25T06:39:03;12.30;59.60
19060;DHT22;9663;48.996;8.334;2023-04-25T06:41:28;12.30;59.70
19060;DHT22;9663;48.996;8.334;2023-04-25T06:43:54;12.30;59.80
19060;DHT22;9663;48.996;8.334;2023-04-25T06:46:20;12.30;59.80
19060;DHT22;9663;48.996;8.334;2023-04-25T06:48:45;12.40;59.90
19060;DHT22;9663;48.996;8.334;2023-04-25T06:51:11;11.80;59.70
19060;DHT22;9663;48.996;8.334;2023-04-25T06:53:38;12.40;59.90
19060;DHT22;9663;48.996;8.334;2023-04-25T06:56:07;12.40;60.00
19060;DHT22;9663;48.996;8.334;2023-04-25T06:58:33;12.40;59.50
19060;DHT22;9663;48.996;8.334;2023-04-25T07:00:58;12.40;59.90
19060;DHT22;9663;48.996;8.334;2023-04-25T07:03:24;12.40;59.90
19060;DHT22;9663;48.996;8.334;2023-04-25T07:05:50;12.40;59.90
19060;DHT22;9663;48.996;8.334;2023-04-25T07:10:42;13.10;59.60
19060;DHT22;9663;48.996;8.334;2023-04-25T07:13:08;12.40;59.90
19060;DHT22;9663;48.996;8.334;2023-04-25T07:15:34;12.40;60.00
19060;DHT22;9663;48.996;8.334;2023-04-25T07:18:00;13.30;60.40
19060;DHT22;9663;48.996;8.334;2023-04-25T07:20:25;12.30;59.90
19060;DHT22;9663;48.996;8.334;2023-04-25T07:22:53;12.30;59.90
19060;DHT22;9663;48.996;8.334;2023-04-25T07:25:19;12.20;60.00
19060;DHT22;9663;48.996;8.334;2023-04-25T07:27:45;12.20;60.00
19060;DHT22;9663;48.996;8.334;2023-04-25T07:30:11;12.20;60.10
19060;DHT22;9663;48.996;8.334;2023-04-25T07:32:38;12.20;60.10
19060;DHT22;9663;48.996;8.334;2023-04-25T07:35:04;12.10;60.20
19060;DHT22;9663;48.996;8.334;2023-04-25T07:37:32;12.10;60.30
19060;DHT22;9663;48.996;8.334;2023-04-25T07:39:58;12.20;60.30
19060;DHT22;9663;48.996;8.334;2023-04-25T07:42:24;12.10;60.20
19060;DHT22;9663;48.996;8.334;2023-04-25T07:44:50;12.20;60.40
19060;DHT22;9663;48.996;8.334;2023-04-25T07:47:17;12.20;60.40
19060;DHT22;9663;48.996;8.334;2023-04-25T07:49:44;10.90;59.70
19060;DHT22;9663;48.996;8.334;2023-04-25T07:52:10;12.10;60.50
19060;DHT22;9663;48.996;8.334;2023-04-25T07:54:36;10.70;59.80
19060;DHT22;9663;48.996;8.334;2023-04-25T07:57:02;12.10;60.70
19060;DHT22;9663;48.996;8.334;2023-04-25T07:59:28;12.00;60.40
19060;DHT22;9663;48.996;8.334;2023-04-25T08:01:53;12.00;60.40
19060;DHT22;9663;48.996;8.334;2023-04-25T08:04:19;12.00;60.50
19060;DHT22;9663;48.996;8.334;2023-04-25T08:06:45;10.80;59.90
19060;DHT22;9663;48.996;8.334;2023-04-25T08:09:11;12.00;60.70
19060;DHT22;9663;48.996;8.334;2023-04-25T08:11:36;11.90;60.20
19060;DHT22;9663;48.996;8.334;2023-04-25T08:14:02;11.90;60.80
19060;DHT22;9663;48.996;8.334;2023-04-25T08:16:28;11.90;60.20
19060;DHT22;9663;48.996;8.334;2023-04-25T08:18:54;11.40;60.60
19060;DHT22;9663;48.996;8.334;2023-04-25T08:21:20;11.70;60.80
19060;DHT22;9663;48.996;8.334;2023-04-25T08:23:45;11.90;61.00
19060;DHT22;9663;48.996;8.334;2023-04-25T08:26:11;11.90;61.00
19060;DHT22;9663;48.996;8.334;2023-04-25T08:28:37;11.90;61.10
19060;DHT22;9663;48.996;8.334;2023-04-25T08:31:03;11.90;61.10
19060;DHT22;9663;48.996;8.334;2023-04-25T08:33:29;11.90;61.20
19060;DHT22;9663;48.996;8.334;2023-04-25T08:35:55;11.90;61.10
19060;DHT22;9663;48.996;8.334;2023-04-25T08:38:21;11.90;61.20
19060;DHT22;9663;48.996;8.334;2023-04-25T08:40:50;10.40;60.40
19060;DHT22;9663;48.996;8.334;2023-04-25T08:43:19;11.90;61.40
19060;DHT22;9663;48.996;8.334;2023-04-25T08:45:46;11.90;61.40
19060;DHT22;9663;48.996;8.334;2023-04-25T08:48:14;12.10;61.70
19060;DHT22;9663;48.996;8.334;2023-04-25T08:50:51;11.90;61.50
19060;DHT22;9663;48.996;8.334;2023-04-25T08:55:53;11.90;61.80
19060;DHT22;9663;48.996;8.334;2023-04-25T08:58:21;11.90;61.70
19060;DHT22;9663;48.996;8.334;2023-04-25T09:00:48;12.00;61.70
19060;DHT22;9663;48.996;8.334;2023-04-25T09:03:15;12.00;61.80
19060;DHT22;9663;48.996;8.334;2023-04-25T09:05:42;12.00;61.80
19060;DHT22;9663;48.996;8.334;2023-04-25T09:08:08;12.10;61.90
19060;DHT22;9663;48.996;8.334;2023-04-25T09:10:34;12.00;61.80
19060;DHT22;9663;48.996;8.334;2023-04-25T09:15:52;13.60;63.10
19060;DHT22;9663;48.996;8.334;2023-04-25T09:18:23;10.90;61.60
19060;DHT22;9663;48.996;8.334;2023-04-25T09:20:54;12.20;62.10
19060;DHT22;9663;48.996;8.334;2023-04-25T09:23:22;12.30;62.20
19060;DHT22;9663;48.996;8.334;2023-04-25T09:25:52;12.30;62.30
19060;DHT22;9663;48.996;8.334;2023-04-25T09:28:26;12.60;62.40
19060;DHT22;9663;48.996;8.334;2023-04-25T09:30:56;12.50;62.30
19060;DHT22;9663;48.996;8.334;2023-04-25T09:33:30;14.00;63.00
19060;DHT22;9663;48.996;8.334;2023-04-25T09:36:08;12.60;62.30
19060;DHT22;9663;48.996;8.334;2023-04-25T09:38:44;12.60;62.20
19060;DHT22;9663;48.996;8.334;2023-04-25T09:41:11;12.70;62.20
19060;DHT22;9663;48.996;8.334;2023-04-25T09:43:38;12.70;61.70
19060;DHT22;9663;48.996;8.334;2023-04-25T09:46:09;12.70;61.60
19060;DHT22;9663;48.996;8.334;2023-04-25T09:48:36;12.70;61.60
19060;DHT22;9663;48.996;8.334;2023-04-25T09:51:10;12.60;61.30
19060;DHT22;9663;48.996;8.334;2023-04-25T09:53:40;12.50;61.40
19060;DHT22;9663;48.996;8.334;2023-04-25T09:56:09;12.50;61.30
19060;DHT22;9663;48.996;8.334;2023-04-25T09:58:38;12.50;61.50
19060;DHT22;9663;48.996;8.334;2023-04-25T10:01:06;12.40;61.50
19060;DHT22;9663;48.996;8.334;2023-04-25T10:03:35;12.40;61.70
19060;DHT22;9663;48.996;8.334;2023-04-25T10:06:12;12.40;61.80
19060;DHT22;9663;48.996;8.334;2023-04-25T10:08:43;13.80;62.70
19060;DHT22;9663;48.996;8.334;2023-04-25T10:11:10;12.40;61.90
19060;DHT22;9663;48.996;8.334;2023-04-25T10:13:36;12.40;61.90
19060;DHT22;9663;48.996;8.334;2023-04-25T10:16:04;12.40;61.90
19060;DHT22;9663;48.996;8.334;2023-04-25T10:18:31;12.40;62.10
19060;DHT22;9663;48.996;8.334;2023-04-25T10:21:02;12.40;62.10
19060;DHT22;9663;48.996;8.334;2023-04-25T10:23:30;12.40;62.20
19060;DHT22;9663;48.996;8.334;2023-04-25T10:25:57;12.50;62.30
19060;DHT22;9663;48.996;8.334;2023-04-25T10:28:24;12.60;62.30
19060;DHT22;9663;48.996;8.334;2023-04-25T10:31:00;12.70;62.20
19060;DHT22;9663;48.996;8.334;2023-04-25T10:33:35;12.70;62.30
19060;DHT22;9663;48.996;8.334;2023-04-25T10:36:17;12.70;62.30
19060;DHT22;9663;48.996;8.334;2023-04-25T10:38:45;12.80;62.10
19060;DHT22;9663;48.996;8.334;2023-04-25T10:41:12;12.90;62.00
19060;DHT22;9663;48.996;8.334;2023-04-25T10:43:43;13.00;61.90
19060;DHT22;9663;48.996;8.334;2023-04-25T10:46:22;13.00;61.90
19060;DHT22;9663;48.996;8.334;2023-04-25T10:48:51;13.00;61.80
19060;DHT22;9663;48.996;8.334;2023-04-25T10:51:33;13.10;61.60
19060;DHT22;9663;48.996;8.334;2023-04-25T10:54:04;13.60;61.60
19060;DHT22;9663;48.996;8.334;2023-04-25T10:56:38;16.00;63.00
19060;DHT22;9663;48.996;8.334;2023-04-25T10:59:16;12.40;60.80
19060;DHT22;9663;48.996;8.334;2023-04-25T11:01:48;13.10;61.00
19060;DHT22;9663;48.996;8.334;2023-04-25T11:09:33;13.00;61.10
19060;DHT22;9663;48.996;8.334;2023-04-25T11:12:00;13.00;61.00
19060;DHT22;9663;48.996;8.334;2023-04-25T11:14:26;13.00;61.20
19060;DHT22;9663;48.996;8.334;2023-04-25T11:16:59;13.00;61.20
19060;DHT22;9663;48.996;8.334;2023-04-25T11:19:26;13.00;61.40
19060;DHT22;9663;48.996;8.334;2023-04-25T11:21:59;12.90;61.00
19060;DHT22;9663;48.996;8.334;2023-04-25T11:24:30;13.20;61.30
19060;DHT22;9663;48.996;8.334;2023-04-25T11:27:01;12.90;61.30
19060;DHT22;9663;48.996;8.334;2023-04-25T11:29:32;12.20;60.80
19060;DHT22;9663;48.996;8.334;2023-04-25T11:31:59;12.80;61.30
19060;DHT22;9663;48.996;8.334;2023-04-25T11:34:27;12.80;61.50
19060;DHT22;9663;48.996;8.334;2023-04-25T11:36:56;12.80;61.60
19060;DHT22;9663;48.996;8.334;2023-04-25T11:39:24;12.80;61.60
19060;DHT22;9663;48.996;8.334;2023-04-25T11:41:50;12.90;61.50
19060;DHT22;9663;48.996;8.334;2023-04-25T11:44:17;12.80;61.30
19060;DHT22;9663;48.996;8.334;2023-04-25T11:46:44;12.80;61.20
19060;DHT22;9663;48.996;8.334;2023-04-25T11:49:10;12.80;61.20
19060;DHT22;9663;48.996;8.334;2023-04-25T11:51:40;12.80;61.30
19060;DHT22;9663;48.996;8.334;2023-04-25T11:54:06;12.80;61.30
19060;DHT22;9663;48.996;8.334;2023-04-25T11:56:32;12.80;61.40
19060;DHT22;9663;48.996;8.334;2023-04-25T11:59:02;12.80;61.60
19060;DHT22;9663;48.996;8.334;2023-04-25T12:01:31;12.80;61.60
19060;DHT22;9663;48.996;8.334;2023-04-25T12:04:09;12.90;61.60
19060;DHT22;9663;48.996;8.334;2023-04-25T12:06:41;13.80;62.10
19060;DHT22;9663;48.996;8.334;2023-04-25T12:09:10;12.90;61.30
19060;DHT22;9663;48.996;8.334;2023-04-25T12:11:52;12.60;61.20
19060;DHT22;9663;48.996;8.334;2023-04-25T12:14:22;12.90;61.80
19060;DHT22;9663;48.996;8.334;2023-04-25T12:16:53;13.00;61.90
19060;DHT22;9663;48.996;8.334;2023-04-25T12:19:21;13.10;61.90
19060;DHT22;9663;48.996;8.334;2023-04-25T12:21:47;13.10;62.00
19060;DHT22;9663;48.996;8.334;2023-04-25T12:24:26;13.30;62.20
19060;DHT22;9663;48.996;8.334;2023-04-25T12:27:03;13.40;62.00
19060;DHT22;9663;48.996;8.334;2023-04-25T12:29:32;13.60;61.80
19060;DHT22;9663;48.996;8.334;2023-04-25T12:31:59;13.70;62.00
19060;DHT22;9663;48.996;8.334;2023-04-25T12:34:27;14.30;62.40
19060;DHT22;9663;48.996;8.334;2023-04-25T12:36:54;14.30;62.30
19060;DHT22;9663;48.996;8.334;2023-04-25T12:39:22;14.50;62.40
19060;DHT22;9663;48.996;8.334;2023-04-25T12:41:50;14.90;62.60
19060;DHT22;9663;48.996;8.334;2023-04-25T12:44:17;15.40;62.00
19060;DHT22;9663;48.996;8.334;2023-04-25T12:46:43;15.60;61.30
19060;DHT22;9663;48.996;8.334;2023-04-25T12:49:09;15.40;60.50
19060;DHT22;9663;48.996;8.334;2023-04-25T12:51:35;17.00;60.80
19060;DHT22;9663;48.996;8.334;2023-04-25T12:54:03;17.20;60.40
19060;DHT22;9663;48.996;8.334;2023-04-25T12:56:30;16.00;59.60
19060;DHT22;9663;48.996;8.334;2023-04-25T12:58:56;16.00;59.60
19060;DHT22;9663;48.996;8.334;2023-04-25T13:01:23;16.10;59.50
19060;DHT22;9663;48.996;8.334;2023-04-25T13:03:49;16.00;59.20
19060;DHT22;9663;48.996;8.334;2023-04-25T13:06:16;16.00;59.20
19060;DHT22;9663;48.996;8.334;2023-04-25T13:08:43;16.30;59.20
19060;DHT22;9663;48.996;8.334;2023-04-25T13:11:09;16.00;59.30
19060;DHT22;9663;48.996;8.334;2023-04-25T13:13:35;16.70;59.80
19060;DHT22;9663;48.996;8.334;2023-04-25T13:16:01;16.50;59.50
19060;DHT22;9663;48.996;8.334;2023-04-25T13:18:28;16.60;59.50
19060;DHT22;9663;48.996;8.334;2023-04-25T13:20:55;16.20;59.10
19060;DHT22;9663;48.996;8.334;2023-04-25T13:23:21;16.60;59.20
19060;DHT22;9663;48.996;8.334;2023-04-25T13:25:47;17.70;59.70
19060;DHT22;9663;48.996;8.334;2023-04-25T13:28:13;16.60;59.20
19060;DHT22;9663;48.996;8.334;2023-04-25T13:30:39;16.80;59.30
19060;DHT22;9663;48.996;8.334;2023-04-25T13:33:06;17.20;59.70
19060;DHT22;9663;48.996;8.334;2023-04-25T13:35:33;17.30;59.70
19060;DHT22;9663;48.996;8.334;2023-04-25T13:38:00;17.90;59.60
19060;DHT22;9663;48.996;8.334;2023-04-25T13:40:26;17.90;59.00
19060;DHT22;9663;48.996;8.334;2023-04-25T13:42:52;19.00;59.40
19060;DHT22;9663;48.996;8.334;2023-04-25T13:45:19;18.10;58.60
19060;DHT22;9663;48.996;8.334;2023-04-25T13:47:45;18.40;58.40
19060;DHT22;9663;48.996;8.334;2023-04-25T13:50:13;18.50;58.10
19060;DHT22;9663;48.996;8.334;2023-04-25T13:52:40;18.80;57.70
19060;DHT22;9663;48.996;8.334;2023-04-25T13:55:06;18.60;57.20
19060;DHT22;9663;48.996;8.334;2023-04-25T13:57:34;18.70;57.30
19060;DHT22;9663;48.996;8.334;2023-04-25T14:00:00;18.90;57.70
19060;DHT22;9663;48.996;8.334;2023-04-25T14:02:32;19.70;58.20
19060;DHT22;9663;48.996;8.334;2023-04-25T14:04:58;18.60;58.00
19060;DHT22;9663;48.996;8.334;2023-04-25T14:07:23;20.30;57.60
19060;DHT22;9663;48.996;8.334;2023-04-25T14:09:50;19.80;56.70
19060;DHT22;9663;48.996;8.334;2023-04-25T14:12:16;20.40;56.60
19060;DHT22;9663;48.996;8.334;2023-04-25T14:14:41;19.90;56.00
19060;DHT22;9663;48.996;8.334;2023-04-25T14:17:08;20.00;55.80
19060;DHT22;9663;48.996;8.334;2023-04-25T14:19:34;20.20;55.60
19060;DHT22;9663;48.996;8.334;2023-04-25T14:22:00;19.90;54.80
19060;DHT22;9663;48.996;8.334;2023-04-25T14:24:26;19.70;54.30
19060;DHT22;9663;48.996;8.334;2023-04-25T14:26:51;19.50;54.40
19060;DHT22;9663;48.996;8.334;2023-04-25T14:29:17;19.30;54.40
19060;DHT22;9663;48.996;8.334;2023-04-25T14:31:43;18.70;55.10
19060;DHT22;9663;48.996;8.334;2023-04-25T14:34:10;19.30;56.20
19060;DHT22;9663;48.996;8.334;2023-04-25T14:36:36;20.70;57.40
19060;DHT22;9663;48.996;8.334;2023-04-25T14:39:03;20.00;56.30
19060;DHT22;9663;48.996;8.334;2023-04-25T14:41:30;20.60;55.40
19060;DHT22;9663;48.996;8.334;2023-04-25T14:43:56;20.40;54.20
19060;DHT22;9663;48.996;8.334;2023-04-25T14:46:22;20.20;53.60
19060;DHT22;9663;48.996;8.334;2023-04-25T14:48:49;19.80;53.10
19060;DHT22;9663;48.996;8.334;2023-04-25T14:51:15;20.20;53.30
19060;DHT22;9663;48.996;8.334;2023-04-25T14:53:41;20.30;53.10
19060;DHT22;9663;48.996;8.334;2023-04-25T14:56:07;19.00;53.00
19060;DHT22;9663;48.996;8.334;2023-04-25T14:58:34;18.40;53.20
19060;DHT22;9663;48.996;8.334;2023-04-25T15:01:00;18.50;54.00
19060;DHT22;9663;48.996;8.334;2023-04-25T15:03:26;17.80;54.10
19060;DHT22;9663;48.996;8.334;2023-04-25T15:05:54;17.60;54.20
19060;DHT22;9663;48.996;8.334;2023-04-25T15:08:20;18.00;54.70
19060;DHT22;9663;48.996;8.334;2023-04-25T15:10:46;17.40;54.60
19060;DHT22;9663;48.996;8.334;2023-04-25T15:13:12;16.90;54.50
19060;DHT22;9663;48.996;8.334;2023-04-25T15:15:38;16.60;54.60
19060;DHT22;9663;48.996;8.334;2023-04-25T15:18:04;16.40;54.70
19060;DHT22;9663;48.996;8.334;2023-04-25T15:20:29;17.00;55.30
19060;DHT22;9663;48.996;8.334;2023-04-25T15:22:55;15.90;55.00
19060;DHT22;9663;48.996;8.334;2023-04-25T15:25:22;15.70;55.30
19060;DHT22;9663;48.996;8.334;2023-04-25T15:27:48;16.00;55.90
19060;DHT22;9663;48.996;8.334;2023-04-25T15:30:17;15.50;56.10
19060;DHT22;9663;48.996;8.334;2023-04-25T15:32:45;15.10;56.10
19060;DHT22;9663;48.996;8.334;2023-04-25T15:35:12;15.60;56.70
19060;DHT22;9663;48.996;8.334;2023-04-25T15:37:40;14.70;56.50
19060;DHT22;9663;48.996;8.334;2023-04-25T15:40:15;14.50;56.60
19060;DHT22;9663;48.996;8.334;2023-04-25T15:42:45;14.40;57.00
19060;DHT22;9663;48.996;8.334;2023-04-25T15:45:14;14.20;57.00
19060;DHT22;9663;48.996;8.334;2023-04-25T15:47:42;13.40;57.10
19060;DHT22;9663;48.996;8.334;2023-04-25T15:50:09;13.80;57.30
19060;DHT22;9663;48.996;8.334;2023-04-25T15:52:36;13.70;58.30
19060;DHT22;9663;48.996;8.334;2023-04-25T15:55:04;13.50;57.90
19060;DHT22;9663;48.996;8.334;2023-04-25T15:57:32;13.10;58.20